sensor_id;sensor_type;location;lat;lon;timestamp;P1;durP1;ratioP1;P2;durP2;ratioP2
71836;SDS011;59686;51.716;7.016;2023-04-03T00:00:15;6.03;;;3.50;;
71836;SDS011;59686;51.716;7.016;2023-04-03T00:02:41;4.93;;;3.30;;
71836;SDS011;59686;51.716;7.016;2023-04-03T00:05:07;7.87;;;3.73;;
71836;SDS011;59686;51.716;7.016;2023-04-03T00:07:32;5.17;;;3.00;;
71836;SDS011;59686;51.716;7.016;2023-04-03T00:09:58;5.13;;;3.07;;
71836;SDS011;59686;51.716;7.016;2023-04-03T00:12:24;6.27;;;3.00;;
71836;SDS011;59686;51.716;7.016;2023-04-03T00:14:49;6.10;;;2.93;;
71836;SDS011;59686;51.716;7.016;2023-04-03T00:17:15;4.87;;;2.80;;
71836;SDS011;59686;51.716;7.016;2023-04-03T00:19:40;5.00;;;3.17;;
71836;SDS011;59686;51.716;7.016;2023-04-03T00:22:06;3.67;;;2.40;;
71836;SDS011;59686;51.716;7.016;2023-04-03T00:24:32;5.10;;;2.40;;
71836;SDS011;59686;51.716;7.016;2023-04-03T00:26:57;5.20;;;2.93;;
71836;SDS011;59686;51.716;7.016;2023-04-03T00:29:23;5.60;;;2.60;;
71836;SDS011;59686;51.716;7.016;2023-04-03T00:31:49;3.37;;;2.43;;
71836;SDS011;59686;51.716;7.016;2023-04-03T00:34:14;3.50;;;2.40;;
71836;SDS011;59686;51.716;7.016;2023-04-03T00:36:40;3.67;;;2.50;;
71836;SDS011;59686;51.716;7.016;2023-04-03T00:39:06;5.00;;;2.67;;
71836;SDS011;59686;51.716;7.016;2023-04-03T00:41:31;3.77;;;2.30;;
71836;SDS011;59686;51.716;7.016;2023-04-03T00:43:57;3.37;;;2.33;;
71836;SDS011;59686;51.716;7.016;2023-04-03T00:46:23;4.43;;;2.30;;
71836;SDS011;59686;51.716;7.016;2023-04-03T00:48:49;4.97;;;2.03;;
71836;SDS011;59686;51.716;7.016;2023-04-03T00:51:19;2.90;;;1.87;;
71836;SDS011;59686;51.716;7.016;2023-04-03T00:56:17;4.87;;;1.97;;
71836;SDS011;59686;51.716;7.016;2023-04-03T00:58:48;3.70;;;2.40;;
71836;SDS011;59686;51.716;7.016;2023-04-03T01:01:20;2.83;;;1.73;;
71836;SDS011;59686;51.716;7.016;2023-04-03T01:03:48;3.53;;;2.03;;
71836;SDS011;59686;51.716;7.016;2023-04-03T01:06:15;3.10;;;2.10;;
71836;SDS011;59686;51.716;7.016;2023-04-03T01:08:43;3.53;;;1.97;;
71836;SDS011;59686;51.716;7.016;2023-04-03T01:11:09;2.80;;;1.60;;
71836;SDS011;59686;51.716;7.016;2023-04-03T01:13:35;3.40;;;1.80;;
71836;SDS011;59686;51.716;7.016;2023-04-03T01:16:02;3.60;;;1.93;;
71836;SDS011;59686;51.716;7.016;2023-04-03T01:18:29;3.03;;;1.60;;
71836;SDS011;59686;51.716;7.016;2023-04-03T01:24:26;3.30;;;1.43;;
71836;SDS011;59686;51.716;7.016;2023-04-03T01:26:52;4.13;;;1.90;;
71836;SDS011;59686;51.716;7.016;2023-04-03T01:32:40;2.63;;;1.70;;
71836;SDS011;59686;51.716;7.016;2023-04-03T01:35:07;3.87;;;1.60;;
71836;SDS011;59686;51.716;7.016;2023-04-03T01:37:34;3.33;;;1.70;;
71836;SDS011;59686;51.716;7.016;2023-04-03T01:40:08;3.60;;;1.93;;
71836;SDS011;59686;51.716;7.016;2023-04-03T01:42:33;2.33;;;1.50;;
71836;SDS011;59686;51.716;7.016;2023-04-03T01:44:59;3.23;;;1.80;;
71836;SDS011;59686;51.716;7.016;2023-04-03T01:47:25;2.60;;;1.40;;
71836;SDS011;59686;51.716;7.016;2023-04-03T01:49:50;2.77;;;1.30;;
71836;SDS011;59686;51.716;7.016;2023-04-03T01:52:16;3.73;;;1.80;;
71836;SDS011;59686;51.716;7.016;2023-04-03T01:54:42;4.53;;;1.60;;
71836;SDS011;59686;51.716;7.016;2023-04-03T01:57:08;3.30;;;1.40;;
71836;SDS011;59686;51.716;7.016;2023-04-03T01:59:33;2.13;;;1.67;;
71836;SDS011;59686;51.716;7.016;2023-04-03T02:01:59;4.03;;;2.13;;
71836;SDS011;59686;51.716;7.016;2023-04-03T02:04:25;2.40;;;1.37;;
71836;SDS011;59686;51.716;7.016;2023-04-03T02:06:50;1.73;;;1.13;;
71836;SDS011;59686;51.716;7.016;2023-04-03T02:09:18;3.10;;;1.63;;
71836;SDS011;59686;51.716;7.016;2023-04-03T02:11:44;2.90;;;1.40;;
71836;SDS011;59686;51.716;7.016;2023-04-03T02:14:09;2.37;;;1.30;;
71836;SDS011;59686;51.716;7.016;2023-04-03T02:16:35;3.07;;;1.40;;
71836;SDS011;59686;51.716;7.016;2023-04-03T02:19:01;3.37;;;1.60;;
71836;SDS011;59686;51.716;7.016;2023-04-03T02:21:26;2.90;;;1.30;;
71836;SDS011;59686;51.716;7.016;2023-04-03T02:24:06;3.27;;;1.43;;
71836;SDS011;59686;51.716;7.016;2023-04-03T02:26:32;1.87;;;1.47;;
71836;SDS011;59686;51.716;7.016;2023-04-03T02:28:57;3.27;;;1.63;;
71836;SDS011;59686;51.716;7.016;2023-04-03T02:31:23;2.63;;;1.30;;
71836;SDS011;59686;51.716;7.016;2023-04-03T02:33:49;2.00;;;1.40;;
71836;SDS011;59686;51.716;7.016;2023-04-03T02:36:15;3.23;;;1.40;;
71836;SDS011;59686;51.716;7.016;2023-04-03T02:38:41;3.23;;;1.40;;
71836;SDS011;59686;51.716;7.016;2023-04-03T02:41:08;2.40;;;1.53;;
71836;SDS011;59686;51.716;7.016;2023-04-03T02:43:35;3.00;;;1.40;;
71836;SDS011;59686;51.716;7.016;2023-04-03T02:46:01;2.20;;;1.33;;
71836;SDS011;59686;51.716;7.016;2023-04-03T02:48:27;2.27;;;1.40;;
71836;SDS011;59686;51.716;7.016;2023-04-03T02:50:53;4.33;;;1.40;;
71836;SDS011;59686;51.716;7.016;2023-04-03T02:53:19;3.57;;;1.50;;
71836;SDS011;59686;51.716;7.016;2023-04-03T02:55:45;3.07;;;1.10;;
71836;SDS011;59686;51.716;7.016;2023-04-03T02:58:11;2.97;;;1.63;;
71836;SDS011;59686;51.716;7.016;2023-04-03T03:00:37;2.17;;;1.30;;
71836;SDS011;59686;51.716;7.016;2023-04-03T03:03:03;2.30;;;1.27;;
71836;SDS011;59686;51.716;7.016;2023-04-03T03:05:29;2.73;;;1.53;;
71836;SDS011;59686;51.716;7.016;2023-04-03T03:07:55;3.20;;;1.60;;
71836;SDS011;59686;51.716;7.016;2023-04-03T03:10:28;3.33;;;1.50;;
71836;SDS011;59686;51.716;7.016;2023-04-03T03:12:54;2.40;;;1.23;;
71836;SDS011;59686;51.716;7.016;2023-04-03T03:15:19;3.10;;;1.53;;
71836;SDS011;59686;51.716;7.016;2023-04-03T03:17:45;1.80;;;1.30;;
71836;SDS011;59686;51.716;7.016;2023-04-03T03:20:11;3.87;;;1.60;;
71836;SDS011;59686;51.716;7.016;2023-04-03T03:22:40;2.03;;;1.30;;
71836;SDS011;59686;51.716;7.016;2023-04-03T03:25:06;2.70;;;1.30;;
71836;SDS011;59686;51.716;7.016;2023-04-03T03:27:32;2.60;;;1.60;;
71836;SDS011;59686;51.716;7.016;2023-04-03T03:29:58;3.37;;;1.30;;
71836;SDS011;59686;51.716;7.016;2023-04-03T03:32:23;1.97;;;1.30;;
71836;SDS011;59686;51.716;7.016;2023-04-03T03:34:49;3.60;;;1.40;;
71836;SDS011;59686;51.716;7.016;2023-04-03T03:37:15;3.37;;;1.60;;
71836;SDS011;59686;51.716;7.016;2023-04-03T03:39:40;2.67;;;1.40;;
71836;SDS011;59686;51.716;7.016;2023-04-03T03:42:06;5.17;;;1.60;;
71836;SDS011;59686;51.716;7.016;2023-04-03T03:44:32;4.27;;;1.50;;
71836;SDS011;59686;51.716;7.016;2023-04-03T03:46:57;3.60;;;1.40;;
71836;SDS011;59686;51.716;7.016;2023-04-03T03:49:23;2.93;;;1.60;;
71836;SDS011;59686;51.716;7.016;2023-04-03T03:51:48;1.90;;;1.40;;
71836;SDS011;59686;51.716;7.016;2023-04-03T03:54:15;3.53;;;1.40;;
71836;SDS011;59686;51.716;7.016;2023-04-03T03:56:41;4.67;;;1.53;;
71836;SDS011;59686;51.716;7.016;2023-04-03T03:59:07;3.50;;;1.57;;
71836;SDS011;59686;51.716;7.016;2023-04-03T04:01:32;2.73;;;1.27;;
71836;SDS011;59686;51.716;7.016;2023-04-03T04:03:58;2.77;;;1.60;;
71836;SDS011;59686;51.716;7.016;2023-04-03T04:06:30;5.07;;;1.40;;
71836;SDS011;59686;51.716;7.016;2023-04-03T04:08:55;2.23;;;1.40;;
71836;SDS011;59686;51.716;7.016;2023-04-03T04:11:21;2.10;;;1.10;;
71836;SDS011;59686;51.716;7.016;2023-04-03T04:13:47;4.03;;;1.43;;
71836;SDS011;59686;51.716;7.016;2023-04-03T04:16:13;2.43;;;1.33;;
71836;SDS011;59686;51.716;7.016;2023-04-03T04:18:38;2.60;;;1.30;;
71836;SDS011;59686;51.716;7.016;2023-04-03T04:21:04;2.10;;;1.40;;
71836;SDS011;59686;51.716;7.016;2023-04-03T04:23:30;3.90;;;1.70;;
71836;SDS011;59686;51.716;7.016;2023-04-03T04:25:56;2.00;;;1.47;;
71836;SDS011;59686;51.716;7.016;2023-04-03T04:28:22;1.50;;;1.20;;
71836;SDS011;59686;51.716;7.016;2023-04-03T04:30:47;3.63;;;1.60;;
71836;SDS011;59686;51.716;7.016;2023-04-03T04:33:13;3.20;;;1.60;;
71836;SDS011;59686;51.716;7.016;2023-04-03T04:35:41;4.07;;;1.57;;
71836;SDS011;59686;51.716;7.016;2023-04-03T04:38:08;2.77;;;1.60;;
71836;SDS011;59686;51.716;7.016;2023-04-03T04:40:34;2.07;;;1.43;;
71836;SDS011;59686;51.716;7.016;2023-04-03T04:43:00;4.07;;;1.40;;
71836;SDS011;59686;51.716;7.016;2023-04-03T04:45:26;3.83;;;1.67;;
71836;SDS011;59686;51.716;7.016;2023-04-03T04:47:51;2.93;;;1.40;;
71836;SDS011;59686;51.716;7.016;2023-04-03T04:50:21;3.10;;;1.47;;
71836;SDS011;59686;51.716;7.016;2023-04-03T04:52:47;2.97;;;1.80;;
71836;SDS011;59686;51.716;7.016;2023-04-03T04:55:13;3.90;;;1.50;;
71836;SDS011;59686;51.716;7.016;2023-04-03T04:57:38;4.13;;;1.50;;
71836;SDS011;59686;51.716;7.016;2023-04-03T05:00:05;2.30;;;1.33;;
71836;SDS011;59686;51.716;7.016;2023-04-03T05:02:31;3.50;;;1.47;;
71836;SDS011;59686;51.716;7.016;2023-04-03T05:04:56;3.93;;;1.60;;
71836;SDS011;59686;51.716;7.016;2023-04-03T05:07:22;4.50;;;1.70;;
71836;SDS011;59686;51.716;7.016;2023-04-03T05:09:49;2.97;;;1.70;;
71836;SDS011;59686;51.716;7.016;2023-04-03T05:12:16;3.37;;;1.50;;
71836;SDS011;59686;51.716;7.016;2023-04-03T05:14:42;3.33;;;1.43;;
71836;SDS011;59686;51.716;7.016;2023-04-03T05:17:07;3.83;;;1.50;;
71836;SDS011;59686;51.716;7.016;2023-04-03T05:19:33;2.43;;;1.30;;
71836;SDS011;59686;51.716;7.016;2023-04-03T05:21:58;2.03;;;1.30;;
71836;SDS011;59686;51.716;7.016;2023-04-03T05:24:30;4.73;;;1.70;;
71836;SDS011;59686;51.716;7.016;2023-04-03T05:26:56;3.03;;;1.70;;
71836;SDS011;59686;51.716;7.016;2023-04-03T05:29:21;3.73;;;1.73;;
71836;SDS011;59686;51.716;7.016;2023-04-03T05:31:48;3.70;;;1.60;;
71836;SDS011;59686;51.716;7.016;2023-04-03T05:34:15;3.50;;;1.40;;
71836;SDS011;59686;51.716;7.016;2023-04-03T05:36:41;5.93;;;1.60;;
71836;SDS011;59686;51.716;7.016;2023-04-03T05:39:07;5.00;;;1.57;;
71836;SDS011;59686;51.716;7.016;2023-04-03T05:41:33;3.37;;;1.77;;
71836;SDS011;59686;51.716;7.016;2023-04-03T05:43:59;2.87;;;1.60;;
71836;SDS011;59686;51.716;7.016;2023-04-03T05:46:24;2.10;;;1.57;;
71836;SDS011;59686;51.716;7.016;2023-04-03T05:48:51;5.43;;;1.60;;
71836;SDS011;59686;51.716;7.016;2023-04-03T05:51:24;3.43;;;1.47;;
71836;SDS011;59686;51.716;7.016;2023-04-03T05:53:55;2.80;;;1.40;;
71836;SDS011;59686;51.716;7.016;2023-04-03T05:56:27;3.13;;;1.60;;
71836;SDS011;59686;51.716;7.016;2023-04-03T05:58:53;4.20;;;1.60;;
71836;SDS011;59686;51.716;7.016;2023-04-03T06:01:23;3.17;;;1.70;;
71836;SDS011;59686;51.716;7.016;2023-04-03T06:03:48;3.43;;;1.73;;
71836;SDS011;59686;51.716;7.016;2023-04-03T06:06:14;2.93;;;1.60;;
71836;SDS011;59686;51.716;7.016;2023-04-03T06:08:40;3.30;;;1.40;;
71836;SDS011;59686;51.716;7.016;2023-04-03T06:11:06;3.70;;;1.60;;
71836;SDS011;59686;51.716;7.016;2023-04-03T06:13:33;2.93;;;1.50;;
71836;SDS011;59686;51.716;7.016;2023-04-03T06:16:00;3.27;;;1.67;;
71836;SDS011;59686;51.716;7.016;2023-04-03T06:18:25;3.53;;;1.63;;
71836;SDS011;59686;51.716;7.016;2023-04-03T06:20:51;3.47;;;1.60;;
71836;SDS011;59686;51.716;7.016;2023-04-03T06:23:17;3.90;;;1.67;;
71836;SDS011;59686;51.716;7.016;2023-04-03T06:25:43;3.40;;;1.77;;
71836;SDS011;59686;51.716;7.016;2023-04-03T06:28:09;3.10;;;1.50;;
71836;SDS011;59686;51.716;7.016;2023-04-03T06:30:35;2.80;;;1.60;;
71836;SDS011;59686;51.716;7.016;2023-04-03T06:33:02;3.77;;;1.40;;
71836;SDS011;59686;51.716;7.016;2023-04-03T06:35:28;4.30;;;1.80;;
71836;SDS011;59686;51.716;7.016;2023-04-03T06:37:55;5.77;;;2.07;;
71836;SDS011;59686;51.716;7.016;2023-04-03T06:40:22;3.17;;;1.63;;
71836;SDS011;59686;51.716;7.016;2023-04-03T06:42:50;2.10;;;1.50;;
71836;SDS011;59686;51.716;7.016;2023-04-03T06:45:16;3.93;;;1.77;;
71836;SDS011;59686;51.716;7.016;2023-04-03T06:47:42;3.33;;;1.53;;
71836;SDS011;59686;51.716;7.016;2023-04-03T06:50:09;3.80;;;2.07;;
71836;SDS011;59686;51.716;7.016;2023-04-03T06:52:36;3.60;;;1.63;;
71836;SDS011;59686;51.716;7.016;2023-04-03T06:55:02;5.07;;;1.67;;
71836;SDS011;59686;51.716;7.016;2023-04-03T06:57:29;2.27;;;1.37;;
71836;SDS011;59686;51.716;7.016;2023-04-03T06:59:54;2.40;;;1.50;;
71836;SDS011;59686;51.716;7.016;2023-04-03T07:02:20;4.63;;;1.67;;
71836;SDS011;59686;51.716;7.016;2023-04-03T07:04:46;2.50;;;1.63;;
71836;SDS011;59686;51.716;7.016;2023-04-03T07:07:12;2.83;;;1.50;;
71836;SDS011;59686;51.716;7.016;2023-04-03T07:09:38;4.13;;;1.83;;
71836;SDS011;59686;51.716;7.016;2023-04-03T07:12:03;3.77;;;1.60;;
71836;SDS011;59686;51.716;7.016;2023-04-03T07:14:29;3.17;;;1.80;;
71836;SDS011;59686;51.716;7.016;2023-04-03T07:16:55;3.70;;;1.70;;
71836;SDS011;59686;51.716;7.016;2023-04-03T07:19:21;5.70;;;1.90;;
71836;SDS011;59686;51.716;7.016;2023-04-03T07:21:54;5.33;;;1.87;;
71836;SDS011;59686;51.716;7.016;2023-04-03T07:24:20;4.13;;;2.00;;
71836;SDS011;59686;51.716;7.016;2023-04-03T07:26:50;3.30;;;1.90;;
71836;SDS011;59686;51.716;7.016;2023-04-03T07:29:16;3.33;;;1.97;;
71836;SDS011;59686;51.716;7.016;2023-04-03T07:31:43;2.93;;;2.00;;
71836;SDS011;59686;51.716;7.016;2023-04-03T07:34:09;5.43;;;1.70;;
71836;SDS011;59686;51.716;7.016;2023-04-03T07:36:36;5.33;;;2.20;;
71836;SDS011;59686;51.716;7.016;2023-04-03T07:39:02;4.77;;;1.87;;
71836;SDS011;59686;51.716;7.016;2023-04-03T07:41:28;4.23;;;1.83;;
71836;SDS011;59686;51.716;7.016;2023-04-03T07:43:55;4.13;;;2.00;;
71836;SDS011;59686;51.716;7.016;2023-04-03T07:46:21;3.83;;;1.83;;
71836;SDS011;59686;51.716;7.016;2023-04-03T07:48:47;3.43;;;1.70;;
71836;SDS011;59686;51.716;7.016;2023-04-03T07:51:13;2.70;;;1.80;;
71836;SDS011;59686;51.716;7.016;2023-04-03T07:53:40;3.97;;;1.70;;
71836;SDS011;59686;51.716;7.016;2023-04-03T07:56:06;3.50;;;1.50;;
71836;SDS011;59686;51.716;7.016;2023-04-03T07:58:32;5.20;;;2.10;;
71836;SDS011;59686;51.716;7.016;2023-04-03T08:01:00;2.70;;;1.57;;
71836;SDS011;59686;51.716;7.016;2023-04-03T08:03:25;4.17;;;1.50;;
71836;SDS011;59686;51.716;7.016;2023-04-03T08:05:51;3.77;;;1.53;;
71836;SDS011;59686;51.716;7.016;2023-04-03T08:08:19;3.60;;;1.90;;
71836;SDS011;59686;51.716;7.016;2023-04-03T08:13:33;2.47;;;1.20;;
71836;SDS011;59686;51.716;7.016;2023-04-03T08:16:07;5.20;;;2.30;;
71836;SDS011;59686;51.716;7.016;2023-04-03T08:18:38;2.60;;;1.30;;
71836;SDS011;59686;51.716;7.016;2023-04-03T08:21:05;2.90;;;1.50;;
71836;SDS011;59686;51.716;7.016;2023-04-03T08:23:32;3.60;;;1.80;;
71836;SDS011;59686;51.716;7.016;2023-04-03T08:26:04;3.57;;;1.60;;
71836;SDS011;59686;51.716;7.016;2023-04-03T08:28:35;3.13;;;1.63;;
71836;SDS011;59686;51.716;7.016;2023-04-03T08:31:08;4.30;;;1.70;;
71836;SDS011;59686;51.716;7.016;2023-04-03T08:33:37;3.67;;;1.60;;
71836;SDS011;59686;51.716;7.016;2023-04-03T08:36:04;3.30;;;1.57;;
71836;SDS011;59686;51.716;7.016;2023-04-03T08:38:31;3.13;;;1.63;;
71836;SDS011;59686;51.716;7.016;2023-04-03T08:41:02;3.47;;;1.60;;
71836;SDS011;59686;51.716;7.016;2023-04-03T08:44:38;3.13;;;1.57;;
71836;SDS011;59686;51.716;7.016;2023-04-03T08:49:47;4.57;;;1.63;;
71836;SDS011;59686;51.716;7.016;2023-04-03T08:52:19;3.80;;;1.40;;
71836;SDS011;59686;51.716;7.016;2023-04-03T08:54:57;2.27;;;1.50;;
71836;SDS011;59686;51.716;7.016;2023-04-03T08:57:28;4.43;;;1.53;;
71836;SDS011;59686;51.716;7.016;2023-04-03T09:00:07;3.30;;;1.40;;
71836;SDS011;59686;51.716;7.016;2023-04-03T09:05:15;2.57;;;1.40;;
71836;SDS011;59686;51.716;7.016;2023-04-03T09:07:46;2.53;;;1.30;;
71836;SDS011;59686;51.716;7.016;2023-04-03T09:10:19;3.63;;;1.53;;
71836;SDS011;59686;51.716;7.016;2023-04-03T09:12:52;2.30;;;1.30;;
71836;SDS011;59686;51.716;7.016;2023-04-03T09:15:24;3.10;;;1.20;;
71836;SDS011;59686;51.716;7.016;2023-04-03T09:22:57;1.77;;;1.40;;
71836;SDS011;59686;51.716;7.016;2023-04-03T09:25:25;3.23;;;1.70;;
71836;SDS011;59686;51.716;7.016;2023-04-03T09:27:57;4.47;;;1.70;;
71836;SDS011;59686;51.716;7.016;2023-04-03T09:30:26;4.17;;;1.43;;
71836;SDS011;59686;51.716;7.016;2023-04-03T09:32:53;3.50;;;1.60;;
71836;SDS011;59686;51.716;7.016;2023-04-03T09:35:24;1.90;;;1.37;;
71836;SDS011;59686;51.716;7.016;2023-04-03T09:40:45;3.60;;;1.57;;
71836;SDS011;59686;51.716;7.016;2023-04-03T09:45:50;4.60;;;1.50;;
71836;SDS011;59686;51.716;7.016;2023-04-03T09:48:21;3.20;;;1.40;;
71836;SDS011;59686;51.716;7.016;2023-04-03T09:50:54;2.27;;;1.30;;
71836;SDS011;59686;51.716;7.016;2023-04-03T09:58:40;4.13;;;1.50;;
71836;SDS011;59686;51.716;7.016;2023-04-03T10:01:24;2.03;;;1.10;;
71836;SDS011;59686;51.716;7.016;2023-04-03T10:06:32;2.10;;;1.60;;
71836;SDS011;59686;51.716;7.016;2023-04-03T10:09:12;1.97;;;1.40;;
71836;SDS011;59686;51.716;7.016;2023-04-03T10:11:59;3.37;;;1.20;;
71836;SDS011;59686;51.716;7.016;2023-04-03T10:14:30;3.33;;;1.20;;
71836;SDS011;59686;51.716;7.016;2023-04-03T10:24:48;2.33;;;1.10;;
71836;SDS011;59686;51.716;7.016;2023-04-03T10:27:34;2.03;;;1.00;;
71836;SDS011;59686;51.716;7.016;2023-04-03T10:52:26;1.83;;;1.27;;
71836;SDS011;59686;51.716;7.016;2023-04-03T10:57:52;3.30;;;1.20;;
71836;SDS011;59686;51.716;7.016;2023-04-03T11:00:29;1.73;;;1.23;;
71836;SDS011;59686;51.716;7.016;2023-04-03T11:03:06;1.83;;;1.37;;
71836;SDS011;59686;51.716;7.016;2023-04-03T11:05:47;1.63;;;1.10;;
71836;SDS011;59686;51.716;7.016;2023-04-03T11:11:18;3.00;;;1.33;;
71836;SDS011;59686;51.716;7.016;2023-04-03T11:16:31;2.33;;;1.23;;
71836;SDS011;59686;51.716;7.016;2023-04-03T11:19:07;1.53;;;1.10;;
71836;SDS011;59686;51.716;7.016;2023-04-03T11:21:54;2.00;;;1.37;;
71836;SDS011;59686;51.716;7.016;2023-04-03T11:24:27;2.73;;;1.47;;
71836;SDS011;59686;51.716;7.016;2023-04-03T11:26:57;3.33;;;1.20;;
71836;SDS011;59686;51.716;7.016;2023-04-03T11:29:27;2.13;;;1.10;;
71836;SDS011;59686;51.716;7.016;2023-04-03T11:32:20;3.10;;;1.20;;
71836;SDS011;59686;51.716;7.016;2023-04-03T11:34:57;2.70;;;1.13;;
71836;SDS011;59686;51.716;7.016;2023-04-03T11:40:08;4.43;;;1.40;;
71836;SDS011;59686;51.716;7.016;2023-04-03T11:50:30;2.17;;;1.17;;
71836;SDS011;59686;51.716;7.016;2023-04-03T11:55:44;2.07;;;1.47;;
71836;SDS011;59686;51.716;7.016;2023-04-03T12:14:19;3.93;;;1.30;;
71836;SDS011;59686;51.716;7.016;2023-04-03T12:24:32;2.17;;;1.40;;
71836;SDS011;59686;51.716;7.016;2023-04-03T12:29:42;3.77;;;1.20;;
71836;SDS011;59686;51.716;7.016;2023-04-03T12:32:25;2.50;;;1.23;;
71836;SDS011;59686;51.716;7.016;2023-04-03T12:37:50;3.17;;;1.20;;
71836;SDS011;59686;51.716;7.016;2023-04-03T12:45:48;2.60;;;1.20;;
71836;SDS011;59686;51.716;7.016;2023-04-03T12:48:15;2.13;;;1.30;;
71836;SDS011;59686;51.716;7.016;2023-04-03T12:50:46;3.43;;;1.30;;
71836;SDS011;59686;51.716;7.016;2023-04-03T12:53:16;3.17;;;1.30;;
71836;SDS011;59686;51.716;7.016;2023-04-03T12:55:47;1.50;;;1.10;;
71836;SDS011;59686;51.716;7.016;2023-04-03T12:58:22;2.37;;;1.30;;
71836;SDS011;59686;51.716;7.016;2023-04-03T13:01:00;2.20;;;1.20;;
71836;SDS011;59686;51.716;7.016;2023-04-03T13:03:28;3.70;;;1.53;;
71836;SDS011;59686;51.716;7.016;2023-04-03T13:05:57;3.33;;;1.20;;
71836;SDS011;59686;51.716;7.016;2023-04-03T13:08:26;2.60;;;1.27;;
71836;SDS011;59686;51.716;7.016;2023-04-03T13:10:57;3.10;;;1.30;;
71836;SDS011;59686;51.716;7.016;2023-04-03T13:13:26;2.93;;;1.10;;
71836;SDS011;59686;51.716;7.016;2023-04-03T13:15:53;1.50;;;0.97;;
71836;SDS011;59686;51.716;7.016;2023-04-03T13:18:36;3.40;;;1.40;;
71836;SDS011;59686;51.716;7.016;2023-04-03T13:21:06;2.27;;;1.30;;
71836;SDS011;59686;51.716;7.016;2023-04-03T13:23:40;1.97;;;1.10;;
71836;SDS011;59686;51.716;7.016;2023-04-03T13:26:09;2.47;;;1.30;;
71836;SDS011;59686;51.716;7.016;2023-04-03T13:28:36;3.33;;;1.17;;
71836;SDS011;59686;51.716;7.016;2023-04-03T13:33:56;2.23;;;1.40;;
71836;SDS011;59686;51.716;7.016;2023-04-03T13:36:38;2.73;;;1.53;;
71836;SDS011;59686;51.716;7.016;2023-04-03T13:44:29;1.60;;;1.00;;
71836;SDS011;59686;51.716;7.016;2023-04-03T13:49:42;2.23;;;1.40;;
71836;SDS011;59686;51.716;7.016;2023-04-03T13:52:29;4.30;;;1.60;;
71836;SDS011;59686;51.716;7.016;2023-04-03T13:54:57;4.27;;;1.47;;
71836;SDS011;59686;51.716;7.016;2023-04-03T13:57:25;2.90;;;1.30;;
71836;SDS011;59686;51.716;7.016;2023-04-03T13:59:51;2.90;;;1.30;;
71836;SDS011;59686;51.716;7.016;2023-04-03T14:02:29;4.40;;;1.23;;
71836;SDS011;59686;51.716;7.016;2023-04-03T14:04:59;3.60;;;1.40;;
71836;SDS011;59686;51.716;7.016;2023-04-03T14:07:27;3.00;;;1.30;;
71836;SDS011;59686;51.716;7.016;2023-04-03T14:09:54;3.07;;;1.30;;
71836;SDS011;59686;51.716;7.016;2023-04-03T14:12:34;2.83;;;1.23;;
71836;SDS011;59686;51.716;7.016;2023-04-03T14:15:11;2.43;;;1.23;;
71836;SDS011;59686;51.716;7.016;2023-04-03T14:20:19;3.33;;;1.60;;
71836;SDS011;59686;51.716;7.016;2023-04-03T14:22:47;2.60;;;1.20;;
71836;SDS011;59686;51.716;7.016;2023-04-03T14:25:14;2.03;;;1.37;;
71836;SDS011;59686;51.716;7.016;2023-04-03T14:27:57;3.43;;;1.50;;
71836;SDS011;59686;51.716;7.016;2023-04-03T14:30:34;2.07;;;1.30;;
71836;SDS011;59686;51.716;7.016;2023-04-03T14:33:01;1.30;;;1.07;;
71836;SDS011;59686;51.716;7.016;2023-04-03T14:35:28;3.47;;;1.40;;
71836;SDS011;59686;51.716;7.016;2023-04-03T14:37:54;2.60;;;1.60;;
71836;SDS011;59686;51.716;7.016;2023-04-03T14:40:22;2.90;;;1.10;;
71836;SDS011;59686;51.716;7.016;2023-04-03T14:42:51;3.53;;;1.40;;
71836;SDS011;59686;51.716;7.016;2023-04-03T14:45:20;3.67;;;1.40;;
71836;SDS011;59686;51.716;7.016;2023-04-03T14:47:47;2.07;;;1.63;;
71836;SDS011;59686;51.716;7.016;2023-04-03T14:50:18;4.77;;;1.23;;
71836;SDS011;59686;51.716;7.016;2023-04-03T14:52:46;2.40;;;1.20;;
71836;SDS011;59686;51.716;7.016;2023-04-03T14:55:16;2.67;;;1.40;;
71836;SDS011;59686;51.716;7.016;2023-04-03T14:57:43;1.83;;;1.20;;
71836;SDS011;59686;51.716;7.016;2023-04-03T15:00:13;1.93;;;1.30;;
71836;SDS011;59686;51.716;7.016;2023-04-03T15:02:41;2.67;;;1.30;;
71836;SDS011;59686;51.716;7.016;2023-04-03T15:05:08;1.90;;;1.30;;
71836;SDS011;59686;51.716;7.016;2023-04-03T15:07:43;3.60;;;1.57;;
71836;SDS011;59686;51.716;7.016;2023-04-03T15:10:23;3.40;;;1.30;;
71836;SDS011;59686;51.716;7.016;2023-04-03T15:12:51;2.67;;;1.40;;
71836;SDS011;59686;51.716;7.016;2023-04-03T15:15:18;3.50;;;1.67;;
71836;SDS011;59686;51.716;7.016;2023-04-03T15:17:45;3.07;;;1.50;;
71836;SDS011;59686;51.716;7.016;2023-04-03T15:20:17;5.00;;;1.70;;
71836;SDS011;59686;51.716;7.016;2023-04-03T15:22:44;1.43;;;1.20;;
71836;SDS011;59686;51.716;7.016;2023-04-03T15:25:10;3.17;;;1.40;;
71836;SDS011;59686;51.716;7.016;2023-04-03T15:27:36;3.47;;;1.30;;
71836;SDS011;59686;51.716;7.016;2023-04-03T15:30:03;4.20;;;1.63;;
71836;SDS011;59686;51.716;7.016;2023-04-03T15:32:30;2.23;;;1.23;;
71836;SDS011;59686;51.716;7.016;2023-04-03T15:34:56;2.23;;;1.50;;
71836;SDS011;59686;51.716;7.016;2023-04-03T15:37:22;1.97;;;1.40;;
71836;SDS011;59686;51.716;7.016;2023-04-03T15:39:47;2.33;;;1.30;;
71836;SDS011;59686;51.716;7.016;2023-04-03T15:42:13;1.70;;;1.30;;
71836;SDS011;59686;51.716;7.016;2023-04-03T15:44:39;3.13;;;1.63;;
71836;SDS011;59686;51.716;7.016;2023-04-03T15:47:04;1.87;;;1.40;;
71836;SDS011;59686;51.716;7.016;2023-04-03T15:49:32;1.90;;;1.30;;
71836;SDS011;59686;51.716;7.016;2023-04-03T15:51:58;1.63;;;1.30;;
71836;SDS011;59686;51.716;7.016;2023-04-03T15:54:24;2.57;;;1.40;;
71836;SDS011;59686;51.716;7.016;2023-04-03T15:56:58;3.67;;;1.40;;
71836;SDS011;59686;51.716;7.016;2023-04-03T15:59:24;1.80;;;1.30;;
71836;SDS011;59686;51.716;7.016;2023-04-03T16:01:50;2.17;;;1.40;;
71836;SDS011;59686;51.716;7.016;2023-04-03T16:04:28;2.73;;;1.57;;
71836;SDS011;59686;51.716;7.016;2023-04-03T16:06:54;2.50;;;1.40;;
71836;SDS011;59686;51.716;7.016;2023-04-03T16:09:20;3.43;;;1.60;;
71836;SDS011;59686;51.716;7.016;2023-04-03T16:11:48;2.53;;;1.33;;
71836;SDS011;59686;51.716;7.016;2023-04-03T16:14:14;2.45;;;1.30;;
71836;SDS011;59686;51.716;7.016;2023-04-03T16:16:40;2.80;;;1.30;;
71836;SDS011;59686;51.716;7.016;2023-04-03T16:19:05;2.70;;;1.63;;
71836;SDS011;59686;51.716;7.016;2023-04-03T16:21:31;1.77;;;1.40;;
71836;SDS011;59686;51.716;7.016;2023-04-03T16:24:01;2.87;;;1.70;;
71836;SDS011;59686;51.716;7.016;2023-04-03T16:26:27;2.93;;;1.73;;
71836;SDS011;59686;51.716;7.016;2023-04-03T16:28:53;3.03;;;1.60;;
71836;SDS011;59686;51.716;7.016;2023-04-03T16:31:19;2.10;;;1.60;;
71836;SDS011;59686;51.716;7.016;2023-04-03T16:33:46;2.35;;;1.75;;
71836;SDS011;59686;51.716;7.016;2023-04-03T16:36:11;4.05;;;1.95;;
71836;SDS011;59686;51.716;7.016;2023-04-03T16:38:37;2.92;;;1.80;;
71836;SDS011;59686;51.716;7.016;2023-04-03T16:41:03;4.00;;;1.92;;
71836;SDS011;59686;51.716;7.016;2023-04-03T16:43:33;4.88;;;2.00;;
71836;SDS011;59686;51.716;7.016;2023-04-03T16:45:59;2.47;;;1.80;;
71836;SDS011;59686;51.716;7.016;2023-04-03T16:48:27;4.25;;;1.88;;
71836;SDS011;59686;51.716;7.016;2023-04-03T16:50:53;3.38;;;1.90;;
71836;SDS011;59686;51.716;7.016;2023-04-03T16:53:20;4.78;;;2.10;;
71836;SDS011;59686;51.716;7.016;2023-04-03T16:55:47;3.65;;;2.10;;
71836;SDS011;59686;51.716;7.016;2023-04-03T16:58:13;3.20;;;1.85;;
71836;SDS011;59686;51.716;7.016;2023-04-03T17:00:39;4.40;;;1.70;;
71836;SDS011;59686;51.716;7.016;2023-04-03T17:03:05;2.30;;;1.63;;
71836;SDS011;59686;51.716;7.016;2023-04-03T17:05:31;3.40;;;1.70;;
71836;SDS011;59686;51.716;7.016;2023-04-03T17:07:57;6.50;;;2.15;;
71836;SDS011;59686;51.716;7.016;2023-04-03T17:10:23;2.78;;;1.90;;